createdAt,value
2023-02-19T00:02:07.866Z,11.00
2023-02-19T00:04:34.720Z,10.90
2023-02-19T00:07:01.664Z,11.00
2023-02-19T00:09:28.527Z,11.00
2023-02-19T00:11:55.256Z,11.00
2023-02-19T00:14:22.442Z,11.10
2023-02-19T00:16:49.516Z,11.00
2023-02-19T00:19:19.792Z,11.00
2023-02-19T00:21:47.775Z,11.00
2023-02-19T00:24:15.487Z,11.00
2023-02-19T00:26:44.880Z,11.00
2023-02-19T00:29:21.915Z,11.00
2023-02-19T00:31:49.511Z,11.10
2023-02-19T00:34:16.470Z,11.10
2023-02-19T00:36:44.360Z,11.00
2023-02-19T00:39:15.719Z,10.90
2023-02-19T00:41:43.187Z,11.00
2023-02-19T00:44:12.029Z,11.00
2023-02-19T00:46:46.408Z,11.00
2023-02-19T00:49:22.738Z,11.00
2023-02-19T00:51:52.394Z,10.90
2023-02-19T00:54:20.348Z,11.00
2023-02-19T00:56:47.283Z,11.00
2023-02-19T00:59:15.061Z,10.90
2023-02-19T01:01:44.697Z,10.90
2023-02-19T01:04:12.504Z,11.00
2023-02-19T01:06:39.314Z,11.10
2023-02-19T01:09:07.701Z,11.00
2023-02-19T01:11:34.823Z,11.00
2023-02-19T01:14:03.541Z,11.00
2023-02-19T01:16:31.061Z,11.10
2023-02-19T01:18:58.159Z,11.10
2023-02-19T01:21:27.736Z,11.00
2023-02-19T01:23:55.516Z,11.00
2023-02-19T01:26:30.992Z,10.90
2023-02-19T01:29:01.055Z,10.90
2023-02-19T01:31:29.185Z,11.00
2023-02-19T01:34:00.304Z,11.00
2023-02-19T01:36:29.163Z,10.90
2023-02-19T01:38:56.054Z,10.80
2023-02-19T01:41:25.657Z,10.80
2023-02-19T01:44:11.317Z,10.80
2023-02-19T01:46:40.725Z,10.80
2023-02-19T01:49:25.949Z,10.90
2023-02-19T01:52:04.417Z,11.00
2023-02-19T01:54:37.490Z,10.90
2023-02-19T01:57:11.157Z,11.00
2023-02-19T01:59:38.509Z,11.00
2023-02-19T02:02:06.547Z,11.00
2023-02-19T02:04:35.139Z,10.90
2023-02-19T02:07:26.377Z,10.90
2023-02-19T02:10:12.598Z,10.80
2023-02-19T02:12:39.471Z,10.80
2023-02-19T02:15:07.641Z,10.80
2023-02-19T02:18:24.967Z,10.70
2023-02-19T02:21:14.062Z,10.70
2023-02-19T02:24:24.844Z,10.70
2023-02-19T02:27:26.657Z,10.90
2023-02-19T02:30:32.159Z,10.80
2023-02-19T02:33:32.265Z,10.90
2023-02-19T02:36:14.673Z,10.90
2023-02-19T02:38:46.201Z,10.80
2023-02-19T02:41:15.608Z,11.00
2023-02-19T02:43:42.573Z,11.00
2023-02-19T02:46:27.897Z,10.80
2023-02-19T02:49:11.678Z,10.90
2023-02-19T02:51:49.442Z,10.90
2023-02-19T02:54:53.211Z,10.90
2023-02-19T02:57:22.260Z,10.80
2023-02-19T02:59:53.524Z,10.80
2023-02-19T03:02:30.043Z,10.80
2023-02-19T03:05:41.322Z,10.80
2023-02-19T03:08:23.900Z,10.70
2023-02-19T03:10:59.402Z,10.90
2023-02-19T03:13:56.833Z,10.80
2023-02-19T03:16:48.768Z,11.00
2023-02-19T03:19:20.273Z,10.80
2023-02-19T03:22:10.737Z,10.60
2023-02-19T03:25:21.600Z,10.60
2023-02-19T03:27:51.489Z,10.70
2023-02-19T03:30:25.291Z,10.80
2023-02-19T03:33:00.258Z,10.70
2023-02-19T03:35:33.555Z,10.60
2023-02-19T03:38:23.133Z,10.60
2023-02-19T03:41:16.870Z,10.60
2023-02-19T03:44:24.735Z,10.50
2023-02-19T03:47:10.156Z,10.60
2023-02-19T03:50:01.430Z,10.50
2023-02-19T03:52:54.365Z,10.40
2023-02-19T03:55:59.333Z,10.40
2023-02-19T03:59:00.260Z,10.50
2023-02-19T04:02:10.686Z,10.60
2023-02-19T04:05:14.278Z,10.60
2023-02-19T04:07:47.899Z,10.60
2023-02-19T04:10:19.158Z,10.40
2023-02-19T04:13:09.154Z,10.60
2023-02-19T04:15:40.021Z,10.60
2023-02-19T04:18:16.768Z,10.50
2023-02-19T04:20:48.078Z,10.50
2023-02-19T04:23:22.339Z,10.40
2023-02-19T04:25:54.977Z,10.40
2023-02-19T04:28:22.184Z,10.40
2023-02-19T04:30:49.258Z,10.40
2023-02-19T04:33:16.245Z,10.40
2023-02-19T04:35:43.128Z,10.60
2023-02-19T04:38:10.182Z,10.70
2023-02-19T04:40:37.011Z,10.60
2023-02-19T04:43:03.839Z,10.50
2023-02-19T04:45:30.751Z,10.50
2023-02-19T04:47:58.808Z,10.50
2023-02-19T04:50:26.028Z,10.50
2023-02-19T04:52:52.793Z,10.60
2023-02-19T04:55:19.712Z,10.60
2023-02-19T04:57:46.544Z,10.50
2023-02-19T05:00:13.851Z,10.50
2023-02-19T05:02:40.806Z,10.50
2023-02-19T05:05:08.088Z,10.50
2023-02-19T05:07:34.927Z,10.50
2023-02-19T05:10:01.798Z,10.40
2023-02-19T05:12:31.091Z,10.50
2023-02-19T05:14:58.104Z,10.50
2023-02-19T05:17:24.947Z,10.50
2023-02-19T05:19:51.812Z,10.50
2023-02-19T05:22:18.659Z,10.50
2023-02-19T05:24:45.469Z,10.50
2023-02-19T05:27:12.236Z,10.40
2023-02-19T05:29:39.045Z,10.50
2023-02-19T05:32:05.899Z,10.70
2023-02-19T05:34:32.858Z,10.60
2023-02-19T05:36:59.776Z,10.60
2023-02-19T05:39:26.554Z,10.50
2023-02-19T05:41:53.607Z,10.40
2023-02-19T05:44:20.782Z,10.40
2023-02-19T05:46:47.644Z,10.40
2023-02-19T05:49:14.436Z,10.40
2023-02-19T05:51:41.275Z,10.40
2023-02-19T05:54:08.110Z,10.40
2023-02-19T05:56:42.045Z,10.40
2023-02-19T05:59:21.526Z,10.30
2023-02-19T06:01:50.708Z,10.40
2023-02-19T06:04:19.954Z,10.40
2023-02-19T06:06:48.428Z,10.30
2023-02-19T06:09:15.398Z,10.30
2023-02-19T06:11:43.529Z,10.40
2023-02-19T06:14:13.903Z,10.40
2023-02-19T06:16:41.775Z,10.30
2023-02-19T06:19:08.903Z,10.30
2023-02-19T06:21:36.249Z,10.20
2023-02-19T06:24:09.309Z,10.10
2023-02-19T06:26:36.821Z,10.10
2023-02-19T06:29:04.255Z,10.10
2023-02-19T06:31:31.166Z,10.10
2023-02-19T06:33:58.226Z,10.10
2023-02-19T06:36:25.385Z,10.10
2023-02-19T06:38:52.437Z,10.10
2023-02-19T06:41:19.903Z,10.10
2023-02-19T06:43:47.086Z,10.00
2023-02-19T06:46:14.387Z,10.00
2023-02-19T06:48:44.121Z,10.10
2023-02-19T06:51:22.590Z,10.10
2023-02-19T06:53:49.893Z,10.10
2023-02-19T06:56:31.289Z,10.00
2023-02-19T06:59:04.078Z,10.00
2023-02-19T07:01:33.839Z,10.00
2023-02-19T07:04:00.917Z,10.00
2023-02-19T07:06:29.237Z,10.00
2023-02-19T07:08:58.045Z,10.10
2023-02-19T07:11:26.212Z,10.10
2023-02-19T07:14:01.302Z,10.10
2023-02-19T07:16:28.661Z,10.10
2023-02-19T07:19:00.386Z,10.00
2023-02-19T07:21:28.713Z,10.00
2023-02-19T07:23:55.932Z,10.10
2023-02-19T07:26:23.721Z,10.00
2023-02-19T07:28:52.455Z,10.00
2023-02-19T07:31:24.006Z,10.00
2023-02-19T07:33:51.767Z,10.00
2023-02-19T07:36:20.655Z,10.10
2023-02-19T07:38:47.761Z,10.10
2023-02-19T07:41:14.654Z,10.10
2023-02-19T07:43:41.544Z,10.10
2023-02-19T07:46:13.842Z,10.00
2023-02-19T07:48:43.031Z,10.00
2023-02-19T07:51:16.617Z,10.00
2023-02-19T07:53:43.464Z,10.00
2023-02-19T07:56:12.730Z,10.00
2023-02-19T07:58:40.878Z,10.00
2023-02-19T08:01:17.112Z,10.00
2023-02-19T08:03:44.825Z,10.00
2023-02-19T08:06:12.333Z,10.10
2023-02-19T08:08:40.021Z,10.10
2023-02-19T08:11:26.064Z,10.00
2023-02-19T08:13:53.927Z,10.00
2023-02-19T08:16:36.846Z,10.00
2023-02-19T08:19:07.902Z,10.10
2023-02-19T08:21:34.652Z,10.10
2023-02-19T08:24:01.513Z,10.10
2023-02-19T08:26:28.378Z,10.00
2023-02-19T08:28:55.158Z,10.00
2023-02-19T08:31:22.121Z,10.00
2023-02-19T08:33:49.161Z,10.00
2023-02-19T08:36:15.969Z,10.10
2023-02-19T08:38:42.769Z,10.00
2023-02-19T08:41:14.123Z,10.10
2023-02-19T08:43:42.455Z,10.10
2023-02-19T08:46:11.556Z,10.10
2023-02-19T08:48:39.998Z,10.10
2023-02-19T08:51:11.636Z,10.20
2023-02-19T08:53:40.368Z,10.20
2023-02-19T08:56:09.051Z,10.20
2023-02-19T08:58:37.383Z,10.20
2023-02-19T09:01:11.381Z,10.10
2023-02-19T09:03:38.424Z,10.20
2023-02-19T09:06:05.489Z,10.20
2023-02-19T09:08:32.368Z,10.20
2023-02-19T09:11:04.904Z,10.30
2023-02-19T09:13:31.799Z,10.30
2023-02-19T09:15:58.774Z,10.20
2023-02-19T09:18:26.816Z,10.40
2023-02-19T09:20:53.680Z,10.40
2023-02-19T09:23:20.586Z,10.40
2023-02-19T09:25:47.477Z,10.40
2023-02-19T09:28:14.379Z,10.30
2023-02-19T09:30:41.271Z,10.30
2023-02-19T09:33:08.045Z,10.30
2023-02-19T09:35:39.128Z,10.30
2023-02-19T09:38:06.020Z,10.40
2023-02-19T09:40:35.533Z,10.30
2023-02-19T09:43:07.602Z,10.40
2023-02-19T09:45:37.896Z,10.40
2023-02-19T09:48:06.183Z,10.50
2023-02-19T09:50:41.078Z,10.50
2023-02-19T09:53:41.220Z,10.70
2023-02-19T09:56:09.293Z,10.70
2023-02-19T09:58:48.588Z,10.60
2023-02-19T10:01:16.303Z,10.60
2023-02-19T10:03:49.035Z,10.60
2023-02-19T10:06:23.670Z,10.70
2023-02-19T10:09:15.459Z,10.70
2023-02-19T10:11:42.750Z,10.60
2023-02-19T10:14:36.956Z,10.60
2023-02-19T10:17:06.723Z,10.70
2023-02-19T10:19:36.260Z,10.70
2023-02-19T10:22:04.656Z,10.70
2023-02-19T10:24:31.894Z,10.60
2023-02-19T10:26:58.922Z,10.60
2023-02-19T10:29:27.148Z,10.60
2023-02-19T10:32:18.153Z,10.70
2023-02-19T10:34:45.101Z,10.80
2023-02-19T10:37:18.572Z,10.80
2023-02-19T10:39:50.696Z,10.70
2023-02-19T10:42:22.291Z,10.60
2023-02-19T10:44:58.658Z,10.60
2023-02-19T10:47:28.647Z,10.40
2023-02-19T10:50:02.097Z,10.40
2023-02-19T10:52:36.131Z,10.30
2023-02-19T10:55:31.678Z,10.40
2023-02-19T10:58:15.110Z,10.30
2023-02-19T11:00:41.954Z,10.20
2023-02-19T11:03:21.166Z,10.20
2023-02-19T11:06:01.103Z,10.30
2023-02-19T11:08:30.228Z,10.20
2023-02-19T11:10:57.153Z,10.30
2023-02-19T11:13:38.023Z,10.10
2023-02-19T11:16:05.516Z,10.20
2023-02-19T11:18:34.897Z,10.30
2023-02-19T11:21:05.488Z,10.40
2023-02-19T11:23:36.557Z,10.30
2023-02-19T11:26:16.470Z,10.30
2023-02-19T11:28:44.422Z,10.20
2023-02-19T11:31:20.180Z,10.10
2023-02-19T11:34:15.734Z,10.20
2023-02-19T11:36:43.006Z,10.00
2023-02-19T11:39:16.027Z,10.10
2023-02-19T11:42:12.004Z,10.00
2023-02-19T11:45:28.474Z,10.00
2023-02-19T11:48:11.891Z,10.00
2023-02-19T11:51:15.793Z,10.00
2023-02-19T11:54:30.263Z,10.00
2023-02-19T11:57:17.964Z,10.00
2023-02-19T12:00:11.890Z,10.10
2023-02-19T12:02:56.088Z,9.90
2023-02-19T12:06:16.694Z,9.90
2023-02-19T12:08:55.066Z,9.90
2023-02-19T12:11:35.357Z,9.90
2023-02-19T12:14:25.595Z,9.90
2023-02-19T12:17:00.092Z,9.90
2023-02-19T12:20:01.559Z,9.80
2023-02-19T12:22:36.298Z,9.90
2023-02-19T12:25:28.460Z,9.80
2023-02-19T12:28:20.074Z,9.80
2023-02-19T12:31:06.288Z,9.80
2023-02-19T12:33:59.681Z,9.70
2023-02-19T12:37:20.662Z,9.80
2023-02-19T12:39:54.776Z,9.80
2023-02-19T12:42:52.942Z,9.80
2023-02-19T12:45:36.791Z,9.80
2023-02-19T12:48:29.675Z,9.90
2023-02-19T12:51:22.638Z,9.70
2023-02-19T12:54:02.232Z,9.70
2023-02-19T12:56:47.744Z,9.30
2023-02-19T12:59:35.694Z,9.00
2023-02-19T13:02:23.681Z,9.00
2023-02-19T13:05:22.829Z,8.90
2023-02-19T13:08:12.864Z,8.70
2023-02-19T13:11:01.002Z,8.80
2023-02-19T13:13:41.948Z,8.70
2023-02-19T13:16:19.599Z,8.70
2023-02-19T13:18:50.678Z,8.70
2023-02-19T13:21:40.679Z,8.70
2023-02-19T13:24:15.696Z,8.70
2023-02-19T13:27:32.441Z,8.60
2023-02-19T13:30:15.913Z,8.60
2023-02-19T13:33:00.707Z,8.60
2023-02-19T13:36:06.077Z,8.50
2023-02-19T13:38:44.754Z,8.50
2023-02-19T13:41:28.453Z,8.50
2023-02-19T13:44:06.132Z,8.70
2023-02-19T13:46:43.529Z,8.70
2023-02-19T13:49:28.382Z,8.70
2023-02-19T13:52:03.602Z,8.70
2023-02-19T13:54:36.187Z,8.80
2023-02-19T13:57:28.604Z,8.80
2023-02-19T13:59:58.265Z,8.90
2023-02-19T14:02:32.139Z,9.00
2023-02-19T14:05:10.988Z,8.90
2023-02-19T14:07:48.688Z,8.90
2023-02-19T14:10:54.211Z,8.90
2023-02-19T14:13:55.757Z,9.00
2023-02-19T14:16:33.201Z,9.00
2023-02-19T14:19:00.401Z,9.00
2023-02-19T14:21:40.340Z,8.90
2023-02-19T14:24:14.420Z,9.00
2023-02-19T14:26:42.112Z,8.90
2023-02-19T14:29:14.750Z,9.00
2023-02-19T14:31:45.986Z,9.00
2023-02-19T14:34:25.069Z,9.10
2023-02-19T14:37:01.582Z,9.20
2023-02-19T14:39:37.791Z,9.30
2023-02-19T14:42:27.023Z,9.20
2023-02-19T14:44:59.506Z,9.30
2023-02-19T14:47:30.898Z,9.40
2023-02-19T14:50:14.332Z,9.30
2023-02-19T14:52:47.897Z,9.20
2023-02-19T14:55:30.435Z,9.20
2023-02-19T14:58:01.200Z,9.30
2023-02-19T15:00:39.155Z,9.30
2023-02-19T15:03:22.643Z,9.30
2023-02-19T15:06:17.846Z,9.40
2023-02-19T15:08:50.688Z,9.30
2023-02-19T15:11:32.257Z,9.40
2023-02-19T15:14:04.879Z,9.40
2023-02-19T15:16:35.632Z,9.30
2023-02-19T15:19:08.749Z,9.30
2023-02-19T15:21:44.413Z,9.30
2023-02-19T15:24:15.095Z,9.20
2023-02-19T15:26:46.906Z,9.10
2023-02-19T15:29:27.416Z,9.10
2023-02-19T15:32:01.204Z,9.20
2023-02-19T15:34:31.655Z,9.10
2023-02-19T15:37:06.914Z,9.00
2023-02-19T15:39:46.515Z,9.00
2023-02-19T15:42:23.048Z,9.00
2023-02-19T15:45:19.624Z,9.10
2023-02-19T15:47:56.128Z,9.10
2023-02-19T15:50:29.961Z,9.00
2023-02-19T15:53:30.126Z,8.90
2023-02-19T15:56:28.268Z,9.00
2023-02-19T15:59:04.187Z,9.00
2023-02-19T16:01:40.943Z,8.90
2023-02-19T16:04:17.498Z,8.90
2023-02-19T16:06:58.936Z,8.80
2023-02-19T16:09:37.787Z,8.90
2023-02-19T16:12:24.258Z,8.90
2023-02-19T16:14:51.209Z,8.80
2023-02-19T16:17:23.003Z,8.80
2023-02-19T16:20:03.442Z,8.90
2023-02-19T16:22:40.302Z,8.90
2023-02-19T16:25:21.296Z,8.80
2023-02-19T16:27:48.237Z,8.80
2023-02-19T16:30:25.238Z,8.80
2023-02-19T16:33:20.521Z,8.80
2023-02-19T16:35:49.507Z,8.80
2023-02-19T16:38:19.007Z,8.80
2023-02-19T16:41:10.946Z,8.70
2023-02-19T16:43:43.627Z,8.80
2023-02-19T16:46:12.825Z,8.70
2023-02-19T16:48:40.065Z,8.70
2023-02-19T16:51:08.913Z,8.70
2023-02-19T16:53:35.904Z,8.70
2023-02-19T16:56:02.781Z,8.70
2023-02-19T16:58:29.635Z,8.70
2023-02-19T17:00:57.315Z,8.60
2023-02-19T17:03:25.493Z,8.60
2023-02-19T17:05:53.192Z,8.60
2023-02-19T17:08:42.311Z,8.60
2023-02-19T17:11:15.835Z,8.70
2023-02-19T17:13:47.470Z,8.60
2023-02-19T17:16:27.146Z,8.60
2023-02-19T17:18:55.636Z,8.60
2023-02-19T17:21:31.823Z,8.60
2023-02-19T17:23:58.585Z,8.60
2023-02-19T17:26:29.047Z,8.50
2023-02-19T17:29:04.207Z,8.50
2023-02-19T17:31:31.109Z,8.50
2023-02-19T17:33:58.924Z,8.50
2023-02-19T17:36:31.449Z,8.50
2023-02-19T17:39:00.200Z,8.50
2023-02-19T17:41:27.920Z,8.50
2023-02-19T17:43:55.440Z,8.50
2023-02-19T17:46:25.733Z,8.50
2023-02-19T17:48:53.920Z,8.50
2023-02-19T17:51:21.865Z,8.40
2023-02-19T17:53:48.753Z,8.50
2023-02-19T17:56:22.516Z,8.40
2023-02-19T17:58:49.999Z,8.40
2023-02-19T18:01:16.888Z,8.40
2023-02-19T18:03:44.446Z,8.40
2023-02-19T18:06:11.951Z,8.40
2023-02-19T18:08:39.368Z,8.40
2023-02-19T18:11:07.730Z,8.30
2023-02-19T18:13:34.682Z,8.30
2023-02-19T18:16:01.592Z,8.30
2023-02-19T18:18:28.449Z,8.30
2023-02-19T18:20:55.223Z,8.30
2023-02-19T18:23:22.024Z,8.20
2023-02-19T18:25:48.785Z,8.20
2023-02-19T18:28:15.966Z,8.30
2023-02-19T18:30:42.916Z,8.20
2023-02-19T18:33:13.344Z,8.20
2023-02-19T18:35:40.575Z,8.20
2023-02-19T18:38:07.555Z,8.10
2023-02-19T18:40:35.237Z,8.10
2023-02-19T18:43:02.080Z,8.10
2023-02-19T18:45:29.582Z,8.10
2023-02-19T18:47:56.486Z,8.00
2023-02-19T18:50:23.377Z,8.00
2023-02-19T18:52:50.253Z,8.00
2023-02-19T18:55:17.243Z,8.00
2023-02-19T18:57:45.146Z,8.00
2023-02-19T19:00:22.730Z,8.00
2023-02-19T19:02:50.604Z,8.00
2023-02-19T19:05:22.730Z,7.90
2023-02-19T19:07:59.037Z,7.90
2023-02-19T19:10:27.945Z,7.90
2023-02-19T19:12:54.832Z,7.80
2023-02-19T19:15:22.708Z,7.80
2023-02-19T19:17:49.901Z,7.70
2023-02-19T19:20:22.937Z,7.80
2023-02-19T19:22:52.120Z,7.70
2023-02-19T19:25:21.342Z,7.70
2023-02-19T19:27:50.642Z,7.70
2023-02-19T19:30:19.921Z,7.70
2023-02-19T19:32:52.444Z,7.60
2023-02-19T19:35:21.342Z,7.70
2023-02-19T19:37:48.810Z,7.60
2023-02-19T19:40:17.690Z,7.70
2023-02-19T19:42:44.796Z,7.60
2023-02-19T19:45:12.430Z,7.60
2023-02-19T19:47:39.341Z,7.50
2023-02-19T19:50:06.594Z,7.50
2023-02-19T19:52:33.457Z,7.50
2023-02-19T19:55:00.388Z,7.50
2023-02-19T19:57:27.197Z,7.40
2023-02-19T19:59:54.041Z,7.40
2023-02-19T20:02:21.221Z,7.40
2023-02-19T20:04:48.159Z,7.50
2023-02-19T20:07:15.672Z,7.50
2023-02-19T20:09:47.070Z,7.50
2023-02-19T20:12:13.896Z,7.40
2023-02-19T20:14:45.891Z,7.40
2023-02-19T20:17:13.444Z,7.40
2023-02-19T20:19:40.460Z,7.30
2023-02-19T20:22:07.342Z,7.30
2023-02-19T20:24:34.246Z,7.30
2023-02-19T20:27:02.565Z,7.30
2023-02-19T20:29:33.006Z,7.30
2023-02-19T20:32:03.472Z,7.30
2023-02-19T20:34:31.727Z,7.30
2023-02-19T20:36:59.265Z,7.30
2023-02-19T20:39:29.136Z,7.20
2023-02-19T20:41:57.894Z,7.20
2023-02-19T20:44:27.138Z,7.30
2023-02-19T20:46:54.857Z,7.20
2023-02-19T20:49:26.193Z,7.20
2023-02-19T20:52:00.140Z,7.20
2023-02-19T20:54:33.356Z,7.10
2023-02-19T20:57:03.749Z,7.20
2023-02-19T20:59:35.355Z,7.10
2023-02-19T21:02:05.468Z,7.20
2023-02-19T21:04:33.337Z,7.10
2023-02-19T21:07:00.101Z,7.20
2023-02-19T21:09:26.875Z,7.20
2023-02-19T21:11:53.681Z,7.10
2023-02-19T21:14:20.798Z,7.20
2023-02-19T21:16:47.562Z,7.20
2023-02-19T21:19:14.404Z,7.20
2023-02-19T21:21:41.433Z,7.20
2023-02-19T21:24:12.872Z,7.20
2023-02-19T21:26:41.599Z,7.30
2023-02-19T21:29:12.983Z,7.20
2023-02-19T21:31:46.785Z,7.30
2023-02-19T21:34:18.370Z,7.30
2023-02-19T21:36:45.932Z,7.30
2023-02-19T21:39:16.529Z,7.20
2023-02-19T21:41:43.664Z,7.20
2023-02-19T21:44:11.009Z,7.20
2023-02-19T21:46:37.854Z,7.20
2023-02-19T21:49:04.780Z,7.20
2023-02-19T21:51:38.732Z,7.20
2023-02-19T21:54:08.310Z,7.20
2023-02-19T21:56:36.705Z,7.10
2023-02-19T21:59:04.124Z,7.10
2023-02-19T22:01:34.599Z,7.10
2023-02-19T22:04:01.729Z,7.10
2023-02-19T22:06:30.997Z,7.10
2023-02-19T22:08:59.272Z,7.10
2023-02-19T22:11:26.280Z,7.10
2023-02-19T22:13:53.535Z,7.10
2023-02-19T22:16:20.759Z,7.10
2023-02-19T22:18:54.237Z,7.10
2023-02-19T22:21:24.590Z,7.20
2023-02-19T22:23:53.585Z,7.20
2023-02-19T22:26:35.498Z,7.20
2023-02-19T22:29:08.211Z,7.20
2023-02-19T22:31:36.022Z,7.10
2023-02-19T22:34:03.332Z,7.20
2023-02-19T22:36:33.164Z,7.10
2023-02-19T22:39:01.331Z,7.10
2023-02-19T22:41:28.442Z,7.10
2023-02-19T22:43:56.190Z,7.00
2023-02-19T22:46:27.033Z,7.10
2023-02-19T22:48:53.836Z,7.10
2023-02-19T22:51:23.463Z,7.10
2023-02-19T22:53:56.478Z,7.10
2023-02-19T22:56:27.446Z,7.10
2023-02-19T22:58:56.394Z,7.20
2023-02-19T23:01:24.345Z,7.20
2023-02-19T23:03:55.426Z,7.20
2023-02-19T23:06:29.833Z,7.20
2023-02-19T23:09:10.619Z,7.20
2023-02-19T23:11:39.600Z,7.20
2023-02-19T23:14:07.190Z,7.20
2023-02-19T23:16:37.658Z,7.20
2023-02-19T23:19:07.344Z,7.20
2023-02-19T23:21:34.378Z,7.30
2023-02-19T23:24:02.116Z,7.30
2023-02-19T23:26:28.981Z,7.40
2023-02-19T23:28:56.251Z,7.40
2023-02-19T23:31:23.797Z,7.40
2023-02-19T23:33:50.701Z,7.40
2023-02-19T23:36:17.534Z,7.40
2023-02-19T23:38:47.761Z,7.50
2023-02-19T23:41:17.180Z,7.50
2023-02-19T23:43:44.522Z,7.50
2023-02-19T23:46:17.794Z,7.60
2023-02-19T23:48:46.062Z,7.50
2023-02-19T23:51:13.885Z,7.50
2023-02-19T23:53:40.878Z,7.50
2023-02-19T23:56:07.889Z,7.60
2023-02-19T23:58:34.738Z,7.60
